createdAt,value
2022-10-23T00:00:34.616Z,86.07
2022-10-23T00:03:37.107Z,86.44
2022-10-23T00:06:39.876Z,86.86
2022-10-23T00:09:42.378Z,87.54
2022-10-23T00:12:45.172Z,88.04
2022-10-23T00:15:47.780Z,87.58
2022-10-23T00:18:50.155Z,87.82
2022-10-23T00:21:52.570Z,87.73
2022-10-23T00:24:54.920Z,88.27
2022-10-23T00:27:57.279Z,88.20
2022-10-23T00:31:03.146Z,88.17
2022-10-23T00:34:08.389Z,88.21
2022-10-23T00:37:11.262Z,88.56
2022-10-23T00:40:13.780Z,88.41
2022-10-23T00:43:22.506Z,88.46
2022-10-23T00:46:25.065Z,88.92
2022-10-23T00:49:28.349Z,88.57
2022-10-23T00:52:31.047Z,88.87
2022-10-23T00:55:34.110Z,89.61
2022-10-23T00:58:36.858Z,90.02
2022-10-23T01:01:39.944Z,89.95
2022-10-23T01:04:42.923Z,90.44
2022-10-23T01:08:05.238Z,90.32
2022-10-23T01:11:22.248Z,89.59
2022-10-23T01:15:10.466Z,89.49
2022-10-23T01:18:35.111Z,89.21
2022-10-23T01:21:37.459Z,88.78
2022-10-23T01:24:56.663Z,89.10
2022-10-23T01:28:09.378Z,89.20
2022-10-23T01:31:18.060Z,88.79
2022-10-23T01:34:29.618Z,88.86
2022-10-23T01:37:58.613Z,87.91
2022-10-23T01:41:07.602Z,88.40
2022-10-23T01:44:27.891Z,88.44
2022-10-23T01:47:34.085Z,88.57
2022-10-23T01:50:43.555Z,89.17
2022-10-23T01:53:49.388Z,89.49
2022-10-23T01:56:53.079Z,89.30
2022-10-23T02:00:05.848Z,89.88
2022-10-23T02:03:13.792Z,89.64
2022-10-23T02:06:16.938Z,88.60
2022-10-23T02:09:19.492Z,87.58
2022-10-23T02:12:40.691Z,87.21
2022-10-23T02:15:53.612Z,86.17
2022-10-23T02:18:59.285Z,86.04
2022-10-23T02:22:10.327Z,86.32
2022-10-23T02:25:21.974Z,86.49
2022-10-23T02:28:28.933Z,86.16
2022-10-23T02:31:34.799Z,87.09
2022-10-23T02:34:37.482Z,86.81
2022-10-23T02:37:40.415Z,87.50
2022-10-23T02:40:46.046Z,87.88
2022-10-23T02:43:59.768Z,87.81
2022-10-23T02:47:11.347Z,87.60
2022-10-23T02:50:35.393Z,88.02
2022-10-23T02:53:52.094Z,88.05
2022-10-23T02:57:05.879Z,87.31
2022-10-23T03:00:13.587Z,88.34
2022-10-23T03:03:40.596Z,89.36
2022-10-23T03:06:43.230Z,90.36
2022-10-23T03:09:51.947Z,90.57
2022-10-23T03:12:54.339Z,90.93
2022-10-23T03:15:56.823Z,90.69
2022-10-23T03:19:02.275Z,90.69
2022-10-23T03:22:05.579Z,90.65
2022-10-23T03:25:08.525Z,90.39
2022-10-23T03:28:11.616Z,90.21
2022-10-23T03:31:14.183Z,90.05
2022-10-23T03:34:16.671Z,89.73
2022-10-23T03:37:19.215Z,89.61
2022-10-23T03:40:21.586Z,89.61
2022-10-23T03:43:24.011Z,89.14
2022-10-23T03:46:26.571Z,88.27
2022-10-23T03:49:30.172Z,88.18
2022-10-23T03:52:38.773Z,88.25
2022-10-23T03:55:41.263Z,88.39
2022-10-23T03:58:43.795Z,88.73
2022-10-23T04:01:46.792Z,89.76
2022-10-23T04:04:49.299Z,90.75
2022-10-23T04:07:51.792Z,90.65
2022-10-23T04:10:55.035Z,91.32
2022-10-23T04:14:07.288Z,91.54
2022-10-23T04:17:13.430Z,92.33
2022-10-23T04:20:16.011Z,92.57
2022-10-23T04:23:18.571Z,92.78
2022-10-23T04:26:22.156Z,92.63
2022-10-23T04:29:24.816Z,92.52
2022-10-23T04:32:27.314Z,91.85
2022-10-23T04:35:29.948Z,92.04
2022-10-23T04:38:32.633Z,91.75
2022-10-23T04:41:38.845Z,91.77
2022-10-23T04:44:41.530Z,91.84
2022-10-23T04:47:44.044Z,91.51
2022-10-23T04:50:56.391Z,91.86
2022-10-23T04:54:21.360Z,91.75
2022-10-23T04:57:38.059Z,92.01
2022-10-23T05:00:43.059Z,91.69
2022-10-23T05:03:45.464Z,91.81
2022-10-23T05:06:48.469Z,92.50
2022-10-23T05:10:12.661Z,92.86
2022-10-23T05:13:30.920Z,93.18
2022-10-23T05:16:48.338Z,94.34
2022-10-23T05:19:56.331Z,94.12
2022-10-23T05:23:00.736Z,94.40
2022-10-23T05:26:05.055Z,94.88
2022-10-23T05:29:07.889Z,95.56
2022-10-23T05:32:15.179Z,95.41
2022-10-23T05:35:23.202Z,95.49
2022-10-23T05:38:29.299Z,95.63
2022-10-23T05:41:31.971Z,95.90
2022-10-23T05:44:35.446Z,95.92
2022-10-23T05:48:05.812Z,95.74
2022-10-23T05:52:01.078Z,95.99
2022-10-23T05:55:26.709Z,96.22
2022-10-23T05:58:52.227Z,96.56
2022-10-23T06:02:23.858Z,96.58
2022-10-23T06:05:32.610Z,96.66
2022-10-23T06:08:59.503Z,96.52
2022-10-23T06:12:02.837Z,96.21
2022-10-23T06:15:07.875Z,96.43
2022-10-23T06:18:30.103Z,96.46
2022-10-23T06:21:41.380Z,96.53
2022-10-23T06:24:46.129Z,96.21
2022-10-23T06:27:54.976Z,95.92
2022-10-23T06:30:59.132Z,95.32
2022-10-23T06:34:01.913Z,95.13
2022-10-23T06:37:06.297Z,95.40
2022-10-23T06:40:20.098Z,95.05
2022-10-23T06:43:50.319Z,94.39
2022-10-23T06:47:02.389Z,93.30
2022-10-23T06:50:43.005Z,93.14
2022-10-23T06:53:52.798Z,91.68
2022-10-23T06:57:34.155Z,90.96
2022-10-23T07:00:40.194Z,92.08
2022-10-23T07:03:42.644Z,91.80
2022-10-23T07:06:45.257Z,92.11
2022-10-23T07:09:47.700Z,91.55
2022-10-23T07:13:00.875Z,91.89
2022-10-23T07:16:19.622Z,91.93
2022-10-23T07:19:22.083Z,92.10
2022-10-23T07:22:36.682Z,91.12
2022-10-23T07:25:46.338Z,91.21
2022-10-23T07:28:56.274Z,90.82
2022-10-23T07:32:01.006Z,90.60
2022-10-23T07:35:35.568Z,89.20
2022-10-23T07:38:45.392Z,88.23
2022-10-23T07:41:48.039Z,87.66
2022-10-23T07:44:50.480Z,87.42
2022-10-23T07:47:53.131Z,87.44
2022-10-23T07:51:01.495Z,86.78
2022-10-23T07:54:04.339Z,86.01
2022-10-23T07:57:35.616Z,85.60
2022-10-23T08:00:52.024Z,85.42
2022-10-23T08:04:02.345Z,84.26
2022-10-23T08:07:05.752Z,83.95
2022-10-23T08:10:13.888Z,83.44
2022-10-23T08:13:22.279Z,83.62
2022-10-23T08:16:35.430Z,83.02
2022-10-23T08:19:46.461Z,83.24
2022-10-23T08:22:51.444Z,83.04
2022-10-23T08:26:00.517Z,83.17
2022-10-23T08:29:05.841Z,83.05
2022-10-23T08:32:08.252Z,83.32
2022-10-23T08:35:23.860Z,83.07
2022-10-23T08:38:26.483Z,83.29
2022-10-23T08:41:38.363Z,82.49
2022-10-23T08:44:55.331Z,82.46
2022-10-23T08:48:06.706Z,82.65
2022-10-23T08:51:35.954Z,82.60
2022-10-23T08:55:17.315Z,81.67
2022-10-23T08:58:32.017Z,80.95
2022-10-23T09:01:42.013Z,81.06
2022-10-23T09:04:47.763Z,80.32
2022-10-23T09:08:08.998Z,80.47
2022-10-23T09:11:20.723Z,80.50
2022-10-23T09:14:57.238Z,81.03
2022-10-23T09:18:07.839Z,80.32
2022-10-23T09:21:10.792Z,80.25
2022-10-23T09:24:17.798Z,79.57
2022-10-23T09:27:20.590Z,80.10
2022-10-23T09:30:42.841Z,80.57
2022-10-23T09:33:57.500Z,79.66
2022-10-23T09:37:17.455Z,79.72
2022-10-23T09:40:30.128Z,79.14
2022-10-23T09:43:32.696Z,80.39
2022-10-23T09:47:12.060Z,80.43
2022-10-23T09:50:20.786Z,80.30
2022-10-23T09:53:26.269Z,79.05
2022-10-23T09:56:34.077Z,78.44
2022-10-23T09:59:36.443Z,78.60
2022-10-23T10:02:38.912Z,78.74
2022-10-23T10:06:04.113Z,78.25
2022-10-23T10:09:15.515Z,78.98
2022-10-23T10:12:37.564Z,79.72
2022-10-23T10:15:50.707Z,79.65
2022-10-23T10:19:02.183Z,79.37
2022-10-23T10:22:10.549Z,79.88
2022-10-23T10:25:22.045Z,79.59
2022-10-23T10:28:43.175Z,79.39
2022-10-23T10:32:11.978Z,79.16
2022-10-23T10:35:25.508Z,78.01
2022-10-23T10:38:50.016Z,78.22
2022-10-23T10:41:58.606Z,77.79
2022-10-23T10:45:01.622Z,76.49
2022-10-23T10:48:19.201Z,77.10
2022-10-23T10:52:28.708Z,76.64
2022-10-23T10:55:39.454Z,76.94
2022-10-23T10:58:48.281Z,77.14
2022-10-23T11:01:59.926Z,78.23
2022-10-23T11:05:14.158Z,78.39
2022-10-23T11:08:22.427Z,78.84
2022-10-23T11:11:32.099Z,77.64
2022-10-23T11:14:35.241Z,78.44
2022-10-23T11:17:44.128Z,78.09
2022-10-23T11:20:46.728Z,77.13
2022-10-23T11:24:16.972Z,76.70
2022-10-23T11:27:30.634Z,76.58
2022-10-23T11:30:40.274Z,76.88
2022-10-23T11:34:14.642Z,75.40
2022-10-23T11:37:22.236Z,75.20
2022-10-23T11:40:25.712Z,74.28
2022-10-23T11:43:31.347Z,73.89
2022-10-23T11:46:36.807Z,74.30
2022-10-23T11:49:39.233Z,73.57
2022-10-23T11:53:46.537Z,74.43
2022-10-23T11:57:10.436Z,75.38
2022-10-23T12:00:23.446Z,73.94
2022-10-23T12:03:32.385Z,73.28
2022-10-23T12:06:45.267Z,72.89
2022-10-23T12:10:01.932Z,73.00
2022-10-23T12:13:06.467Z,72.77
2022-10-23T12:16:08.882Z,73.80
2022-10-23T12:19:20.857Z,73.32
2022-10-23T12:22:28.137Z,73.19
2022-10-23T12:25:58.279Z,72.58
2022-10-23T12:29:25.566Z,72.19
2022-10-23T12:32:34.167Z,71.28
2022-10-23T12:36:07.942Z,70.82
2022-10-23T12:39:29.545Z,69.87
2022-10-23T12:42:32.030Z,70.18
2022-10-23T12:45:40.068Z,69.67
2022-10-23T12:48:50.586Z,69.75
2022-10-23T12:51:57.490Z,69.73
2022-10-23T12:55:00.741Z,70.37
2022-10-23T12:58:03.080Z,70.99
2022-10-23T13:01:06.898Z,70.89
2022-10-23T13:04:24.399Z,70.82
2022-10-23T13:07:29.751Z,71.10
2022-10-23T13:10:35.060Z,71.91
2022-10-23T13:13:41.773Z,71.75
2022-10-23T13:16:44.122Z,71.56
2022-10-23T13:19:50.204Z,72.33
2022-10-23T13:23:07.707Z,72.76
2022-10-23T13:26:30.934Z,73.11
2022-10-23T13:29:34.702Z,73.58
2022-10-23T13:32:37.055Z,73.53
2022-10-23T13:35:39.386Z,75.29
2022-10-23T13:38:44.117Z,75.34
2022-10-23T13:41:48.703Z,74.84
2022-10-23T13:44:53.139Z,75.79
2022-10-23T13:47:59.207Z,75.64
2022-10-23T13:51:22.248Z,76.05
2022-10-23T13:57:35.189Z,77.20
2022-10-23T14:00:38.737Z,76.72
2022-10-23T14:03:41.067Z,77.10
2022-10-23T14:06:43.945Z,77.28
2022-10-23T14:09:46.343Z,77.57
2022-10-23T14:12:53.513Z,77.72
2022-10-23T14:15:56.342Z,77.74
2022-10-23T14:18:59.197Z,78.28
2022-10-23T14:22:01.545Z,77.73
2022-10-23T14:25:05.015Z,77.95
2022-10-23T14:28:07.625Z,78.47
2022-10-23T14:31:15.750Z,79.62
2022-10-23T14:34:18.312Z,79.74
2022-10-23T14:37:21.423Z,79.33
2022-10-23T14:40:24.128Z,79.58
2022-10-23T14:43:26.715Z,79.52
2022-10-23T14:46:29.525Z,79.68
2022-10-23T14:49:32.414Z,79.65
2022-10-23T14:52:34.898Z,79.83
2022-10-23T14:55:37.639Z,80.71
2022-10-23T14:58:40.172Z,80.57
2022-10-23T15:01:45.798Z,80.74
2022-10-23T15:04:50.409Z,80.29
2022-10-23T15:07:52.802Z,80.77
2022-10-23T15:11:00.319Z,81.20
2022-10-23T15:14:02.988Z,81.72
2022-10-23T15:17:05.426Z,81.21
2022-10-23T15:20:08.834Z,81.48
2022-10-23T15:23:12.787Z,81.52
2022-10-23T15:26:23.179Z,81.85
2022-10-23T15:29:25.724Z,81.08
2022-10-23T15:32:29.394Z,81.32
2022-10-23T15:35:32.090Z,81.57
2022-10-23T15:38:34.475Z,81.63
2022-10-23T15:41:39.196Z,81.55
2022-10-23T15:44:41.775Z,82.19
2022-10-23T15:47:44.711Z,82.57
2022-10-23T15:50:47.289Z,83.35
2022-10-23T15:53:49.752Z,84.21
2022-10-23T15:56:54.251Z,85.05
2022-10-23T15:59:57.227Z,85.75
2022-10-23T16:02:59.595Z,85.96
2022-10-23T16:06:13.766Z,85.19
2022-10-23T16:09:16.839Z,85.50
2022-10-23T16:12:19.792Z,85.42
2022-10-23T16:15:22.195Z,85.11
2022-10-23T16:18:24.643Z,85.03
2022-10-23T16:21:30.475Z,84.85
2022-10-23T16:24:33.469Z,85.10
2022-10-23T16:27:35.832Z,85.05
2022-10-23T16:30:42.441Z,84.17
2022-10-23T16:33:44.903Z,84.51
2022-10-23T16:36:47.421Z,85.05
2022-10-23T16:40:16.347Z,85.11
2022-10-23T16:43:51.144Z,84.88
2022-10-23T16:47:13.768Z,84.42
2022-10-23T16:50:17.508Z,84.18
2022-10-23T16:53:20.184Z,84.54
2022-10-23T16:56:31.306Z,84.68
2022-10-23T16:59:33.987Z,84.71
2022-10-23T17:02:37.496Z,84.99
2022-10-23T17:05:40.223Z,84.93
2022-10-23T17:08:43.318Z,85.00
2022-10-23T17:11:46.477Z,85.14
2022-10-23T17:14:49.261Z,84.72
2022-10-23T17:17:51.845Z,84.86
2022-10-23T17:20:58.131Z,84.68
2022-10-23T17:27:09.723Z,84.68
2022-10-23T17:30:12.949Z,84.83
2022-10-23T17:33:16.055Z,84.84
2022-10-23T17:36:20.687Z,84.93
2022-10-23T17:39:26.403Z,85.06
2022-10-23T17:42:29.499Z,85.21
2022-10-23T17:45:34.824Z,85.15
2022-10-23T17:48:39.558Z,85.36
2022-10-23T17:51:42.151Z,85.53
2022-10-23T17:54:44.862Z,85.31
2022-10-23T17:57:52.951Z,85.27
2022-10-23T18:00:55.556Z,85.60
2022-10-23T18:04:01.907Z,85.49
2022-10-23T18:07:05.522Z,85.53
2022-10-23T18:10:08.218Z,85.69
2022-10-23T18:13:11.137Z,85.71
2022-10-23T18:16:14.383Z,85.50
2022-10-23T18:19:18.490Z,85.26
2022-10-23T18:22:21.659Z,85.34
2022-10-23T18:25:24.310Z,85.06
2022-10-23T18:28:28.146Z,85.16
2022-10-23T18:31:31.043Z,85.38
2022-10-23T18:34:33.707Z,85.45
2022-10-23T18:37:41.217Z,85.08
2022-10-23T18:40:44.812Z,85.38
2022-10-23T18:43:47.470Z,85.86
2022-10-23T18:46:51.748Z,85.42
2022-10-23T18:49:54.538Z,85.54
2022-10-23T18:52:57.372Z,85.07
2022-10-23T18:56:00.802Z,85.57
2022-10-23T18:59:06.290Z,86.12
2022-10-23T19:02:10.843Z,86.01
2022-10-23T19:05:13.785Z,85.80
2022-10-23T19:08:16.491Z,86.18
2022-10-23T19:11:22.978Z,87.17
2022-10-23T19:14:28.680Z,86.86
2022-10-23T19:17:32.717Z,87.43
2022-10-23T19:20:36.051Z,87.90
2022-10-23T19:23:41.036Z,87.98
2022-10-23T19:26:44.121Z,88.38
2022-10-23T19:29:50.246Z,88.56
2022-10-23T19:32:53.031Z,89.23
2022-10-23T19:35:55.618Z,90.33
2022-10-23T19:38:58.294Z,90.06
2022-10-23T19:42:01.037Z,90.42
2022-10-23T19:45:05.799Z,90.61
2022-10-23T19:48:08.466Z,90.90
2022-10-23T19:51:13.176Z,90.76
2022-10-23T19:54:15.830Z,90.37
2022-10-23T19:57:22.478Z,90.39
2022-10-23T20:00:28.083Z,90.81
2022-10-23T20:03:30.684Z,91.27
2022-10-23T20:06:34.825Z,91.11
2022-10-23T20:09:38.020Z,91.12
2022-10-23T20:12:44.494Z,91.07
2022-10-23T20:15:54.355Z,90.75
2022-10-23T20:18:57.734Z,90.32
2022-10-23T20:22:00.714Z,90.39
2022-10-23T20:25:03.895Z,90.00
2022-10-23T20:28:08.227Z,89.25
2022-10-23T20:31:15.015Z,89.76
2022-10-23T20:34:19.101Z,89.12
2022-10-23T20:37:21.698Z,89.28
2022-10-23T20:40:24.355Z,88.75
2022-10-23T20:43:27.451Z,87.57
2022-10-23T20:46:30.406Z,88.01
2022-10-23T20:49:33.174Z,88.30
2022-10-23T20:52:35.558Z,88.60
2022-10-23T20:55:42.672Z,88.29
2022-10-23T20:58:45.462Z,88.40
2022-10-23T21:01:52.887Z,88.14
2022-10-23T21:04:55.580Z,88.15
2022-10-23T21:07:57.962Z,87.85
2022-10-23T21:11:00.816Z,88.01
2022-10-23T21:14:03.747Z,87.90
2022-10-23T21:17:06.334Z,88.03
2022-10-23T21:20:09.207Z,88.33
2022-10-23T21:23:11.566Z,88.06
2022-10-23T21:26:15.183Z,88.03
2022-10-23T21:29:19.128Z,87.95
2022-10-23T21:32:22.171Z,87.70
2022-10-23T21:35:26.547Z,87.60
2022-10-23T21:38:32.056Z,87.63
2022-10-23T21:41:34.522Z,87.01
2022-10-23T21:44:41.994Z,87.33
2022-10-23T21:47:44.530Z,87.21
2022-10-23T21:50:47.191Z,87.49
2022-10-23T21:53:51.526Z,87.02
2022-10-23T21:56:54.237Z,86.98
2022-10-23T21:59:56.783Z,87.00
2022-10-23T22:02:59.136Z,86.84
2022-10-23T22:06:01.571Z,86.82
2022-10-23T22:09:05.055Z,86.64
2022-10-23T22:12:12.255Z,86.45
2022-10-23T22:15:14.688Z,86.39
2022-10-23T22:18:17.039Z,86.74
2022-10-23T22:21:26.156Z,86.51
2022-10-23T22:24:28.554Z,86.41
2022-10-23T22:27:30.922Z,86.35
2022-10-23T22:30:36.735Z,86.64
2022-10-23T22:33:39.071Z,86.71
2022-10-23T22:36:41.493Z,87.17
2022-10-23T22:39:43.893Z,87.50
2022-10-23T22:42:46.956Z,87.34
2022-10-23T22:45:49.429Z,87.13
2022-10-23T22:48:52.544Z,87.37
2022-10-23T22:51:55.061Z,87.66
2022-10-23T22:54:57.530Z,87.48
2022-10-23T22:57:59.972Z,87.35
2022-10-23T23:01:04.736Z,87.05
2022-10-23T23:04:19.581Z,86.97
2022-10-23T23:07:29.764Z,87.18
2022-10-23T23:10:32.207Z,87.07
2022-10-23T23:13:35.264Z,87.16
2022-10-23T23:16:37.694Z,87.63
2022-10-23T23:19:40.220Z,87.70
2022-10-23T23:22:42.803Z,87.29
2022-10-23T23:25:48.300Z,87.53
2022-10-23T23:28:55.155Z,87.85
2022-10-23T23:31:58.129Z,87.40
2022-10-23T23:35:01.082Z,87.33
2022-10-23T23:38:07.673Z,88.25
2022-10-23T23:41:15.259Z,87.93
2022-10-23T23:44:17.629Z,87.56
2022-10-23T23:47:20.127Z,87.29
2022-10-23T23:50:22.762Z,88.25
2022-10-23T23:53:25.220Z,87.89
2022-10-23T23:56:28.121Z,87.86
2022-10-23T23:59:30.475Z,87.93
